Time;durP1;ratioP1;P1;durP2;ratioP2;P2;SDS_P1;SDS_P2;PMS_P1;PMS_P2;Temp;Humidity;BMP_temperature;BMP_pressure;BME280_temperature;BME280_humidity;BME280_pressure;Samples;Min_cycle;Max_cycle;Signal;HPM_P1;HPM_P2
2023/08/11 00:00:30;;;;;;;0.10;0.10;;;;;;;16.36;100.00;99563.22;5072355;28;20188;-54
2023/08/11 00:03:17;;;;;;;0.10;0.10;;;;;;;16.38;100.00;99561.28;5072174;28;20211;-54
2023/08/11 00:06:07;;;;;;;0.10;0.10;;;;;;;16.42;100.00;99574.28;5072096;28;20195;-55
2023/08/11 00:08:54;;;;;;;0.20;0.20;;;;;;;16.37;100.00;99568.44;5072103;28;20196;-54
2023/08/11 00:11:41;;;;;;;0.10;0.10;;;;;;;16.38;100.00;99564.81;5070843;28;20199;-54
2023/08/11 00:14:28;;;;;;;0.10;0.10;;;;;;;16.22;100.00;99567.88;5072203;28;20672;-54
2023/08/11 00:17:15;;;;;;;0.10;0.10;;;;;;;16.31;100.00;99572.50;5072120;28;20192;-54
2023/08/11 00:20:04;;;;;;;0.17;0.17;;;;;;;16.30;100.00;99573.44;5071883;28;20245;-54
2023/08/11 00:22:52;;;;;;;0.10;0.10;;;;;;;16.18;100.00;99576.25;5071959;28;20246;-54
2023/08/11 00:25:39;;;;;;;0.10;0.10;;;;;;;16.21;100.00;99578.69;5072075;28;20196;-53
2023/08/11 00:28:26;;;;;;;0.10;0.10;;;;;;;16.16;100.00;99576.38;5103289;28;20215;-54
2023/08/11 00:31:14;;;;;;;0.20;0.20;;;;;;;15.96;100.00;99580.66;5075830;28;20192;-54
2023/08/11 00:34:01;;;;;;;0.10;0.10;;;;;;;15.87;100.00;99586.72;5075502;28;20211;-54
2023/08/11 00:36:48;;;;;;;0.10;0.10;;;;;;;16.19;100.00;99586.81;5075099;28;20262;-54
2023/08/11 00:39:37;;;;;;;0.10;0.10;;;;;;;16.03;100.00;99576.53;5074472;28;20199;-54
2023/08/11 00:42:24;;;;;;;0.10;0.10;;;;;;;16.02;100.00;99572.16;5075697;28;20714;-54
2023/08/11 00:45:10;;;;;;;0.10;0.10;;;;;;;15.99;100.00;99583.06;5075028;28;20219;-54
2023/08/11 00:47:57;;;;;;;0.10;0.10;;;;;;;16.08;100.00;99576.16;5075324;28;20273;-54
2023/08/11 00:50:45;;;;;;;0.10;0.10;;;;;;;15.85;100.00;99578.00;5103211;28;20266;-54
2023/08/11 00:53:33;;;;;;;0.10;0.10;;;;;;;15.76;100.00;99575.19;5075255;28;20206;-54
2023/08/11 00:56:23;;;;;;;0.10;0.10;;;;;;;15.73;100.00;99576.28;5073818;28;20203;-54
2023/08/11 00:59:11;;;;;;;0.10;0.10;;;;;;;15.56;100.00;99580.25;5075408;28;20195;-54
2023/08/11 01:01:57;;;;;;;0.10;0.10;;;;;;;15.43;100.00;99579.47;5075253;28;20188;-54
2023/08/11 01:04:44;;;;;;;0.10;0.10;;;;;;;15.22;100.00;99575.78;5102820;28;20215;-54
2023/08/11 01:07:39;;;;;;;0.10;0.10;;;;;;;15.31;100.00;99583.09;5075182;28;20196;-54
2023/08/11 01:10:38;;;;;;;0.20;0.20;;;;;;;15.37;100.00;99586.16;5073814;28;20258;-54
2023/08/11 01:13:30;;;;;;;0.10;0.10;;;;;;;15.40;100.00;99572.56;5075110;28;20235;-54
2023/08/11 01:16:18;;;;;;;0.10;0.10;;;;;;;15.29;100.00;99577.03;5102441;28;20325;-54
2023/08/11 01:19:09;;;;;;;0.20;0.20;;;;;;;15.38;100.00;99574.50;5075004;28;20266;-54
2023/08/11 01:21:59;;;;;;;0.17;0.17;;;;;;;15.09;100.00;99576.72;5074810;28;20199;-54
2023/08/11 01:24:49;;;;;;;0.17;0.17;;;;;;;15.09;100.00;99578.56;5073170;28;20218;-54
2023/08/11 01:27:37;;;;;;;0.10;0.10;;;;;;;14.98;100.00;99576.69;5102419;28;20203;-54
2023/08/11 01:30:24;;;;;;;0.20;0.20;;;;;;;15.03;100.00;99573.66;5074762;28;20199;-54
2023/08/11 01:33:11;;;;;;;0.20;0.20;;;;;;;14.92;100.00;99574.47;5073681;28;20210;-54
2023/08/11 01:35:58;;;;;;;0.20;0.20;;;;;;;14.88;100.00;99587.22;5074019;28;20227;-54
2023/08/11 01:38:45;;;;;;;0.10;0.10;;;;;;;15.00;100.00;99584.59;5074587;28;20187;-54
2023/08/11 01:41:33;;;;;;;0.10;0.10;;;;;;;15.05;100.00;99577.06;5100848;28;20214;-54
2023/08/11 01:44:22;;;;;;;0.20;0.20;;;;;;;15.11;100.00;99577.47;5074281;28;20293;-54
2023/08/11 01:47:10;;;;;;;0.20;0.20;;;;;;;14.82;100.00;99570.81;5074429;28;20191;-54
2023/08/11 01:49:57;;;;;;;0.20;0.20;;;;;;;14.92;100.00;99574.47;5074121;28;20196;-54
2023/08/11 01:52:46;;;;;;;0.20;0.20;;;;;;;15.09;100.00;99579.41;5074410;28;20200;-54
2023/08/11 01:55:34;;;;;;;0.10;0.10;;;;;;;15.00;100.00;99569.44;5071910;28;20191;-54
2023/08/11 01:58:22;;;;;;;0.10;0.10;;;;;;;14.90;100.00;99573.75;5101435;28;20192;-54
2023/08/11 02:01:10;;;;;;;0.20;0.20;;;;;;;15.03;100.00;99574.50;5102012;28;20381;-54
2023/08/11 02:03:57;;;;;;;0.20;0.20;;;;;;;15.06;100.00;99573.47;5073921;28;20190;-54
2023/08/11 02:06:45;;;;;;;0.10;0.10;;;;;;;15.04;100.00;99570.03;5073793;28;20195;-54
2023/08/11 02:09:32;;;;;;;0.10;0.10;;;;;;;14.99;100.00;99565.06;5100370;28;20218;-54
2023/08/11 02:12:19;;;;;;;0.10;0.10;;;;;;;14.94;100.00;99572.53;5073861;28;20321;-54
2023/08/11 02:15:10;;;;;;;0.10;0.10;;;;;;;14.82;100.00;99563.66;5101595;28;20195;-54
2023/08/11 02:17:57;;;;;;;0.10;0.10;;;;;;;14.78;100.00;99570.19;5073598;28;20227;-54
2023/08/11 02:20:44;;;;;;;0.17;0.17;;;;;;;14.82;100.00;99571.66;5101439;28;20191;-54
2023/08/11 02:23:31;;;;;;;0.10;0.10;;;;;;;14.69;100.00;99573.56;5073615;28;20191;-54
2023/08/11 02:26:18;;;;;;;0.10;0.10;;;;;;;14.75;100.00;99564.22;5072252;28;20223;-54
2023/08/11 02:29:07;;;;;;;0.10;0.10;;;;;;;14.65;100.00;99582.72;5073579;28;20282;-54
2023/08/11 02:31:55;;;;;;;0.10;0.10;;;;;;;14.39;100.00;99581.09;5073455;28;20230;-54
2023/08/11 02:34:43;;;;;;;0.20;0.20;;;;;;;14.14;100.00;99577.53;5101179;28;20265;-54
2023/08/11 02:37:30;;;;;;;0.20;0.20;;;;;;;14.18;100.00;99579.00;5100587;28;20242;-54
2023/08/11 02:40:19;;;;;;;0.20;0.20;;;;;;;14.19;100.00;99580.75;5072182;28;20191;-54
2023/08/11 02:43:07;;;;;;;0.10;0.10;;;;;;;14.16;100.00;99580.94;5073223;28;20219;-54
2023/08/11 02:45:55;;;;;;;0.10;0.10;;;;;;;14.37;100.00;99580.34;5100341;28;20290;-54
2023/08/11 02:48:43;;;;;;;0.10;0.10;;;;;;;14.42;100.00;99587.06;5100058;28;20199;-54
2023/08/11 02:51:30;;;;;;;0.10;0.10;;;;;;;14.37;100.00;99589.19;5100878;28;20192;-54
2023/08/11 02:54:17;;;;;;;0.17;0.17;;;;;;;14.10;100.00;99583.22;5099853;28;20378;-54
2023/08/11 02:57:04;;;;;;;0.20;0.20;;;;;;;14.14;100.00;99584.69;5073033;28;20255;-55
2023/08/11 02:59:51;;;;;;;0.20;0.20;;;;;;;14.11;100.00;99585.75;5073011;28;20244;-54
2023/08/11 03:02:38;;;;;;;0.20;0.20;;;;;;;14.21;100.00;99584.13;5071656;28;20230;-54
2023/08/11 03:05:26;;;;;;;0.20;0.20;;;;;;;14.13;100.00;99582.97;5072851;28;20226;-55
2023/08/11 03:08:14;;;;;;;0.10;0.10;;;;;;;14.47;100.00;99584.06;5100735;28;20283;-54
2023/08/11 03:11:01;;;;;;;0.10;0.10;;;;;;;14.21;100.00;99586.81;5098873;28;20553;-54
2023/08/11 03:13:54;;;;;;;0.20;0.20;;;;;;;14.32;100.00;99589.53;5100580;28;20195;-54
2023/08/11 03:16:41;;;;;;;0.20;0.20;;;;;;;14.08;100.00;99588.63;5072623;28;20191;-54
2023/08/11 03:19:28;;;;;;;0.10;0.10;;;;;;;14.14;100.00;99587.34;5100200;28;20242;-54
2023/08/11 03:22:17;;;;;;;0.20;0.20;;;;;;;14.00;100.00;99591.00;5100514;28;20207;-54
2023/08/11 03:25:07;;;;;;;0.20;0.20;;;;;;;14.05;100.00;99580.88;5098894;28;20215;-54
2023/08/11 03:27:54;;;;;;;0.10;0.10;;;;;;;14.01;100.00;99582.91;5071510;28;20234;-54
2023/08/11 03:30:44;;;;;;;0.20;0.20;;;;;;;14.13;100.00;99586.50;5100290;28;20200;-53
2023/08/11 03:33:32;;;;;;;0.10;0.10;;;;;;;14.51;100.00;99585.56;5071604;28;20199;-54
2023/08/11 03:36:25;;;;;;;0.20;0.20;;;;;;;14.23;100.00;99578.69;5099931;28;20242;-54
2023/08/11 03:39:13;;;;;;;0.10;0.10;;;;;;;14.03;100.00;99578.31;5100082;28;20233;-54
2023/08/11 03:42:01;;;;;;;0.10;0.10;;;;;;;13.71;100.00;99577.09;5099737;28;20306;-54
2023/08/11 03:44:48;;;;;;;0.10;0.10;;;;;;;13.69;100.00;99582.50;5100127;28;20195;-54
2023/08/11 03:47:35;;;;;;;0.20;0.20;;;;;;;13.49;100.00;99592.84;5100064;28;20207;-54
2023/08/11 03:50:22;;;;;;;0.10;0.10;;;;;;;13.34;100.00;99600.06;5072396;28;20293;-54
2023/08/11 03:53:09;;;;;;;0.20;0.20;;;;;;;13.42;100.00;99601.25;5072402;28;20265;-54
2023/08/11 03:55:59;;;;;;;0.10;0.10;;;;;;;13.50;100.00;99610.50;5098632;28;20314;-54
2023/08/11 03:58:50;;;;;;;0.10;0.10;;;;;;;13.45;100.00;99609.03;5099906;28;20791;-54
2023/08/11 04:01:38;;;;;;;0.10;0.10;;;;;;;13.59;100.00;99605.41;5104162;28;20194;-54
2023/08/11 04:04:25;;;;;;;0.20;0.20;;;;;;;13.65;100.00;99609.44;5104148;28;20191;-54
2023/08/11 04:07:12;;;;;;;0.20;0.20;;;;;;;13.57;100.00;99603.81;5103590;28;20226;-54
2023/08/11 04:09:59;;;;;;;0.10;0.10;;;;;;;13.37;100.00;99610.50;5102618;28;20191;-54
2023/08/11 04:12:47;;;;;;;0.13;0.13;;;;;;;13.62;100.00;99612.34;5103883;28;20188;-54
2023/08/11 04:15:36;;;;;;;0.20;0.20;;;;;;;13.59;100.00;99609.88;5103694;28;20573;-54
2023/08/11 04:18:22;;;;;;;0.20;0.20;;;;;;;13.77;100.00;99607.75;5076117;28;20354;-54
2023/08/11 04:21:09;;;;;;;0.10;0.10;;;;;;;13.93;100.00;99603.91;5103826;28;20187;-54
2023/08/11 04:23:56;;;;;;;0.20;0.20;;;;;;;13.90;100.00;99600.63;5075658;28;20195;-54
2023/08/11 04:26:46;;;;;;;0.10;0.10;;;;;;;14.00;100.00;99605.19;5103542;28;20371;-54
2023/08/11 04:29:34;;;;;;;0.20;0.20;;;;;;;13.75;100.00;99610.50;5103502;28;20203;-54
2023/08/11 04:32:22;;;;;;;0.10;0.10;;;;;;;13.79;100.00;99611.13;5103379;28;20490;-54
2023/08/11 04:35:10;;;;;;;0.20;0.20;;;;;;;13.78;100.00;99607.63;5074782;28;20199;-53
2023/08/11 04:37:59;;;;;;;0.13;0.13;;;;;;;14.04;100.00;99611.97;5074778;28;20216;-54
2023/08/11 04:40:51;;;;;;;0.10;0.10;;;;;;;13.85;100.00;99606.25;5101977;28;20683;-54
2023/08/11 04:43:38;;;;;;;0.10;0.10;;;;;;;14.08;100.00;99606.41;5074535;28;20210;-53
2023/08/11 04:46:26;;;;;;;0.10;0.10;;;;;;;13.92;100.00;99602.19;5103178;28;20290;-54
2023/08/11 04:49:14;;;;;;;0.20;0.20;;;;;;;14.12;100.00;99598.13;5103079;28;20192;-53
2023/08/11 04:52:02;;;;;;;0.20;0.20;;;;;;;14.26;100.00;99597.97;5075560;28;20322;-54
2023/08/11 04:54:48;;;;;;;0.10;0.10;;;;;;;14.21;100.00;99593.94;5073931;28;20191;-54
2023/08/11 04:57:36;;;;;;;0.10;0.10;;;;;;;14.37;100.00;99602.50;5102908;28;20198;-54
2023/08/11 05:00:24;;;;;;;0.20;0.20;;;;;;;14.73;100.00;99596.34;5074100;28;20269;-54
2023/08/11 05:03:13;;;;;;;0.17;0.17;;;;;;;14.39;100.00;99597.94;5075106;28;20217;-54
2023/08/11 05:06:00;;;;;;;0.10;0.10;;;;;;;14.23;100.00;99592.88;5074564;28;20219;-54
2023/08/11 05:08:48;;;;;;;0.10;0.10;;;;;;;14.22;100.00;99599.16;5075159;28;20203;-53
2023/08/11 05:11:35;;;;;;;0.10;0.10;;;;;;;14.42;100.00;99597.72;5073092;28;20203;-54
2023/08/11 05:14:23;;;;;;;0.10;0.10;;;;;;;14.76;100.00;99589.91;5074519;28;20196;-54
2023/08/11 05:17:10;;;;;;;0.17;0.17;;;;;;;14.50;100.00;99597.19;5075142;28;20251;-54
2023/08/11 05:19:59;;;;;;;0.10;0.10;;;;;;;14.58;100.00;99597.50;5074855;28;20199;-54
2023/08/11 05:22:47;;;;;;;0.10;0.10;;;;;;;14.70;100.00;99582.41;5074935;28;20722;-54
2023/08/11 05:25:34;;;;;;;0.10;0.10;;;;;;;14.79;100.00;99606.56;5073410;28;20257;-54
2023/08/11 05:28:21;;;;;;;0.10;0.10;;;;;;;14.69;100.00;99607.38;5074676;28;20764;-54
2023/08/11 05:31:08;;;;;;;0.10;0.10;;;;;;;14.79;100.00;99601.22;5074714;28;20198;-54
2023/08/11 05:33:56;;;;;;;0.20;0.20;;;;;;;14.78;100.00;99607.53;5074666;28;20192;-54
2023/08/11 05:36:44;;;;;;;0.10;0.10;;;;;;;14.85;100.00;99605.25;5074318;28;20346;-54
2023/08/11 05:39:32;;;;;;;0.20;0.20;;;;;;;15.20;100.00;99610.59;5073235;28;20455;-54
2023/08/11 05:42:18;;;;;;;0.10;0.10;;;;;;;15.17;100.00;99609.03;5074432;28;20192;-54
2023/08/11 05:45:07;;;;;;;0.20;0.20;;;;;;;15.05;100.00;99603.75;5074360;28;20203;-54
2023/08/11 05:47:54;;;;;;;0.10;0.10;;;;;;;15.16;100.00;99609.16;5074095;28;20224;-54
2023/08/11 05:50:45;;;;;;;0.10;0.10;;;;;;;15.27;100.00;99605.66;5074327;28;20195;-54
2023/08/11 05:53:33;;;;;;;0.10;0.10;;;;;;;15.49;100.00;99604.84;5074363;28;20298;-54
2023/08/11 05:56:20;;;;;;;0.10;0.10;;;;;;;15.34;100.00;99606.88;5072871;28;20674;-54
2023/08/11 05:59:07;;;;;;;0.10;0.10;;;;;;;15.50;100.00;99606.56;5074192;28;20203;-54
2023/08/11 06:01:54;;;;;;;0.10;0.10;;;;;;;15.48;100.00;99611.16;5073996;28;20188;-54
2023/08/11 06:04:42;;;;;;;0.10;0.10;;;;;;;15.40;100.00;99611.75;5074052;28;20200;-54
2023/08/11 06:07:29;;;;;;;0.10;0.10;;;;;;;15.61;100.00;99614.63;5073792;28;20707;-54
2023/08/11 06:10:18;;;;;;;0.20;0.20;;;;;;;15.68;100.00;99615.84;5072549;28;20255;-54
2023/08/11 06:13:04;;;;;;;0.10;0.10;;;;;;;15.63;100.00;99615.34;5073819;28;20187;-54
2023/08/11 06:15:51;;;;;;;0.10;0.10;;;;;;;15.95;100.00;99612.84;5073990;28;20195;-54
2023/08/11 06:18:38;;;;;;;0.10;0.10;;;;;;;15.97;100.00;99608.22;5073638;28;20195;-54
2023/08/11 06:21:25;;;;;;;0.10;0.10;;;;;;;16.03;100.00;99600.59;5073775;28;20195;-54
2023/08/11 06:24:12;;;;;;;0.10;0.10;;;;;;;16.14;100.00;99597.06;5072763;28;20258;-54
2023/08/11 06:27:00;;;;;;;0.10;0.10;;;;;;;16.44;100.00;99596.41;5073297;28;20219;-54
2023/08/11 06:29:47;;;;;;;0.10;0.10;;;;;;;16.54;100.00;99591.16;5073633;28;20207;-54
2023/08/11 06:32:34;;;;;;;0.10;0.10;;;;;;;16.58;100.00;99588.09;5073567;28;20191;-54
2023/08/11 06:35:21;;;;;;;0.10;0.10;;;;;;;16.72;100.00;99588.81;5073322;28;20390;-54
2023/08/11 06:38:08;;;;;;;0.10;0.10;;;;;;;16.96;100.00;99586.78;5073411;28;20199;-54
2023/08/11 06:40:55;;;;;;;0.10;0.10;;;;;;;17.25;100.00;99588.81;5072054;28;20261;-54
2023/08/11 06:43:43;;;;;;;0.10;0.10;;;;;;;17.66;100.00;99593.31;5073357;28;20246;-54
2023/08/11 06:46:30;;;;;;;0.10;0.10;;;;;;;17.91;100.00;99598.28;5073063;28;20211;-54
2023/08/11 06:49:17;;;;;;;0.10;0.10;;;;;;;17.97;100.00;99605.81;5073156;28;20672;-54
2023/08/11 06:52:05;;;;;;;0.10;0.10;;;;;;;18.14;100.00;99598.94;5073068;28;20202;-54
2023/08/11 06:54:51;;;;;;;0.10;0.10;;;;;;;18.19;100.00;99594.03;5072122;28;20194;-54
2023/08/11 06:57:38;;;;;;;0.10;0.10;;;;;;;18.34;100.00;99594.50;5073270;28;20200;-54
2023/08/11 07:00:26;;;;;;;0.10;0.10;;;;;;;18.62;100.00;99595.53;5072744;28;20340;-54
2023/08/11 07:03:13;;;;;;;0.10;0.10;;;;;;;18.83;100.00;99593.66;5072901;28;20234;-55
2023/08/11 07:06:00;;;;;;;0.10;0.10;;;;;;;19.10;100.00;99592.06;5072879;28;20643;-55
2023/08/11 07:08:47;;;;;;;0.10;0.10;;;;;;;18.96;100.00;99589.81;5072753;28;20269;-55
2023/08/11 07:11:34;;;;;;;0.10;0.10;;;;;;;19.25;100.00;99597.88;5071942;28;20202;-55
2023/08/11 07:14:21;;;;;;;0.10;0.10;;;;;;;19.47;100.00;99600.25;5072724;28;20195;-55
2023/08/11 07:17:10;;;;;;;0.10;0.10;;;;;;;19.65;100.00;99601.22;5072709;28;20676;-55
2023/08/11 07:19:57;;;;;;;0.10;0.10;;;;;;;20.09;100.00;99603.38;5072891;28;20230;-55
2023/08/11 07:22:44;;;;;;;0.10;0.10;;;;;;;19.98;100.00;99602.56;5072737;28;20191;-55
2023/08/11 07:25:31;;;;;;;0.10;0.10;;;;;;;19.78;100.00;99608.97;5071207;28;20250;-54
2023/08/11 07:28:18;;;;;;;0.10;0.10;;;;;;;20.10;100.00;99610.44;5072482;28;20401;-55
2023/08/11 07:31:05;;;;;;;0.10;0.10;;;;;;;20.53;100.00;99607.97;5072404;28;20294;-55
2023/08/11 07:33:54;;;;;;;0.10;0.10;;;;;;;20.63;100.00;99605.22;5072045;28;20191;-55
2023/08/11 07:36:41;;;;;;;0.10;0.10;;;;;;;20.53;100.00;99601.75;5072224;28;20230;-55
2023/08/11 07:39:28;;;;;;;0.10;0.10;;;;;;;20.66;100.00;99601.41;5071345;28;20635;-55
2023/08/11 07:42:14;;;;;;;0.10;0.10;;;;;;;20.77;100.00;99607.41;5072271;28;20191;-55
2023/08/11 07:45:01;;;;;;;0.10;0.10;;;;;;;20.92;100.00;99601.50;5072424;28;20195;-55
2023/08/11 07:47:48;;;;;;;0.10;0.10;;;;;;;21.07;100.00;99602.66;5072069;28;20219;-55
2023/08/11 07:50:37;;;;;;;0.10;0.10;;;;;;;21.23;100.00;99602.81;5072044;28;20206;-54
2023/08/11 07:53:24;;;;;;;0.10;0.10;;;;;;;21.24;100.00;99604.50;5072344;28;20207;-55
2023/08/11 07:56:12;;;;;;;0.10;0.10;;;;;;;21.23;100.00;99593.84;5071029;28;20678;-55
2023/08/11 07:58:59;;;;;;;0.10;0.10;;;;;;;21.37;100.00;99593.34;5072025;28;20195;-55
2023/08/11 08:01:46;;;;;;;0.10;0.10;;;;;;;21.72;100.00;99603.22;5072283;28;20254;-55
2023/08/11 08:04:33;;;;;;;0.10;0.10;;;;;;;21.62;100.00;99607.88;5072304;28;20273;-55
2023/08/11 08:07:21;;;;;;;0.10;0.10;;;;;;;22.01;100.00;99605.56;5071601;28;20577;-55
2023/08/11 08:10:09;;;;;;;0.10;0.10;;;;;;;22.24;100.00;99600.50;5070943;28;20196;-54
2023/08/11 08:12:56;;;;;;;0.10;0.10;;;;;;;22.39;100.00;99600.69;5072270;28;20210;-55
2023/08/11 08:15:42;;;;;;;0.10;0.10;;;;;;;22.40;100.00;99599.72;5071767;28;20230;-55
2023/08/11 08:18:29;;;;;;;0.10;0.10;;;;;;;22.40;100.00;99597.88;5072247;28;20196;-55
2023/08/11 08:21:16;;;;;;;0.10;0.10;;;;;;;22.30;100.00;99599.84;5072136;28;20694;-55
2023/08/11 08:24:05;;;;;;;0.10;0.10;;;;;;;22.31;100.00;99600.69;5071941;28;20199;-55
2023/08/11 08:26:51;;;;;;;0.10;0.10;;;;;;;22.29;100.00;99595.44;5071974;28;20207;-55
2023/08/11 08:29:38;;;;;;;0.10;0.10;;;;;;;22.41;100.00;99599.56;5072115;28;20196;-55
2023/08/11 08:32:25;;;;;;;0.10;0.10;;;;;;;22.87;100.00;99599.19;5071787;28;20198;-55
2023/08/11 08:35:12;;;;;;;0.10;0.10;;;;;;;23.07;100.00;99596.03;5071936;28;20195;-55
2023/08/11 08:37:59;;;;;;;0.10;0.10;;;;;;;23.09;99.61;99588.59;5072000;28;20203;-55
2023/08/11 08:40:48;;;;;;;0.10;0.10;;;;;;;23.14;98.76;99605.13;5070408;28;20234;-55
2023/08/11 08:43:34;;;;;;;0.10;0.10;;;;;;;23.22;97.21;99600.75;5072089;28;20192;-55
2023/08/11 08:46:22;;;;;;;0.10;0.10;;;;;;;23.30;97.07;99601.59;5072733;28;20239;-55
2023/08/11 08:49:15;;;;;;;0.10;0.10;;;;;;;23.27;98.08;99596.53;5075087;28;20215;-55
2023/08/11 08:52:02;;;;;;;0.10;0.10;;;;;;;23.64;99.38;99606.88;5075378;28;20199;-55
2023/08/11 08:54:51;;;;;;;0.10;0.10;;;;;;;23.93;95.52;99602.72;5074202;28;20314;-55
2023/08/11 08:57:40;;;;;;;0.10;0.10;;;;;;;23.98;94.84;99593.09;5075419;28;20322;-55
2023/08/11 09:00:28;;;;;;;0.10;0.10;;;;;;;24.25;94.15;99588.25;5075210;28;20648;-55
2023/08/11 09:03:15;;;;;;;0.10;0.10;;;;;;;24.11;94.84;99605.22;5075254;28;20234;-55
2023/08/11 09:06:02;;;;;;;0.10;0.10;;;;;;;24.20;96.20;99594.19;5075144;28;20196;-55
2023/08/11 09:08:49;;;;;;;0.08;0.08;;;;;;;24.28;94.53;99599.56;5074989;28;20215;-55
2023/08/11 09:11:38;;;;;;;0.10;0.10;;;;;;;24.48;93.10;99594.59;5075068;28;20247;-55
2023/08/11 09:14:27;;;;;;;0.00;0.00;;;;;;;24.82;87.02;99590.72;5075076;28;20298;-55
2023/08/11 09:17:14;;;;;;;0.08;0.08;;;;;;;24.81;86.49;99583.59;5074956;28;20231;-55
2023/08/11 09:20:01;;;;;;;0.00;0.00;;;;;;;24.91;82.18;99592.34;5074832;28;20191;-55
2023/08/11 09:22:47;;;;;;;0.10;0.10;;;;;;;24.67;88.91;99587.06;5075133;28;20199;-55
2023/08/11 09:25:34;;;;;;;0.10;0.10;;;;;;;24.78;86.97;99583.94;5073580;28;20383;-55
2023/08/11 09:28:22;;;;;;;0.10;0.10;;;;;;;24.45;87.49;99578.72;5074727;28;20215;-55
2023/08/11 09:31:10;;;;;;;0.10;0.10;;;;;;;24.79;87.59;99581.06;5074630;28;20196;-55
2023/08/11 09:33:57;;;;;;;0.10;0.10;;;;;;;25.32;86.09;99583.94;5074532;28;20195;-55
2023/08/11 09:36:44;;;;;;;0.00;0.00;;;;;;;25.23;85.83;99579.59;5074288;28;20296;-55
2023/08/11 09:39:32;;;;;;;0.10;0.10;;;;;;;25.62;83.48;99582.97;5073288;28;20307;-55
2023/08/11 09:42:19;;;;;;;0.00;0.00;;;;;;;25.75;83.24;99584.22;5074559;28;20188;-55
2023/08/11 09:45:09;;;;;;;0.10;0.10;;;;;;;25.60;81.71;99578.75;5074419;28;20291;-55
2023/08/11 09:47:57;;;;;;;0.10;0.10;;;;;;;25.96;80.71;99571.63;5074252;28;20222;-56
2023/08/11 09:50:47;;;;;;;0.10;0.10;;;;;;;26.21;78.01;99577.59;5074356;28;20199;-55
2023/08/11 09:53:34;;;;;;;0.10;0.10;;;;;;;26.30;74.30;99582.94;5074140;28;20238;-55
2023/08/11 09:56:23;;;;;;;0.10;0.10;;;;;;;26.57;72.56;99584.16;5072945;28;20310;-55
2023/08/11 09:59:12;;;;;;;0.10;0.10;;;;;;;26.93;73.68;99581.41;5074138;28;20191;-55
2023/08/11 10:02:02;;;;;;;0.08;0.08;;;;;;;27.05;71.16;99578.00;5074016;28;20238;-55
2023/08/11 10:04:57;;;;;;;0.10;0.10;;;;;;;27.02;73.19;99577.50;5074056;28;20195;-55
2023/08/11 10:07:47;;;;;;;0.10;0.10;;;;;;;26.78;70.44;99578.75;5074076;28;20204;-55
2023/08/11 10:10:36;;;;;;;0.00;0.00;;;;;;;27.46;68.44;99574.59;5072562;28;20675;-55
2023/08/11 10:13:26;;;;;;;0.10;0.10;;;;;;;27.26;69.21;99577.16;5073945;28;20317;-55
2023/08/11 10:16:14;;;;;;;0.10;0.10;;;;;;;27.52;63.97;99578.44;5074021;28;20230;-55
2023/08/11 10:19:02;;;;;;;0.00;0.00;;;;;;;27.62;62.33;99573.50;5073825;28;20679;-55
2023/08/11 10:21:50;;;;;;;0.00;0.00;;;;;;;27.69;62.02;99571.66;5073738;28;20261;-55
2023/08/11 10:24:37;;;;;;;0.10;0.10;;;;;;;27.76;62.69;99580.72;5072365;28;20208;-55
2023/08/11 10:27:24;;;;;;;0.10;0.10;;;;;;;27.88;59.77;99565.50;5073645;28;20227;-55
2023/08/11 10:30:14;;;;;;;0.10;0.10;;;;;;;28.41;58.33;99565.84;5073302;28;20223;-55
2023/08/11 10:33:06;;;;;;;0.10;0.10;;;;;;;28.31;58.65;99562.66;5073352;28;20200;-55
2023/08/11 10:35:57;;;;;;;0.03;0.03;;;;;;;29.02;56.08;99557.63;5073254;28;20223;-55
2023/08/11 10:38:59;;;;;;;0.10;0.10;;;;;;;28.11;56.64;99557.06;5073312;28;20323;-55
2023/08/11 10:41:46;;;;;;;0.00;0.00;;;;;;;28.90;55.82;99558.47;5073275;28;20194;-56
2023/08/11 10:44:44;;;;;;;0.00;0.00;;;;;;;29.15;53.27;99556.84;5072274;28;20210;-55
2023/08/11 10:47:31;;;;;;;0.10;0.10;;;;;;;29.04;53.06;99555.53;5073127;28;20241;-55
2023/08/11 10:50:18;;;;;;;0.00;0.00;;;;;;;29.31;54.92;99556.41;5072995;28;20210;-55
2023/08/11 10:53:18;;;;;;;0.00;0.00;;;;;;;29.45;53.94;99561.88;5073223;28;20277;-56
2023/08/11 10:56:07;;;;;;;0.00;0.00;;;;;;;30.78;51.01;99555.84;5071804;28;20215;-56
2023/08/11 10:59:04;;;;;;;0.00;0.00;;;;;;;31.62;46.81;99553.78;5100740;28;20195;-56
2023/08/11 11:01:52;;;;;;;0.00;0.00;;;;;;;33.25;42.06;99545.66;5073029;28;20269;-56
2023/08/11 11:04:44;;;;;;;0.00;0.00;;;;;;;34.76;38.89;99547.69;5072918;28;20278;-56
2023/08/11 11:07:38;;;;;;;0.00;0.00;;;;;;;36.41;35.42;99540.72;5072465;28;20266;-56
2023/08/11 11:10:24;;;;;;;0.00;0.00;;;;;;;37.38;34.55;99545.34;5070702;28;20346;-56
2023/08/11 11:13:30;;;;;;;0.00;0.00;;;;;;;36.64;34.89;99537.66;5072887;28;20199;-56
2023/08/11 11:16:17;;;;;;;0.00;0.00;;;;;;;37.96;33.55;99537.19;5072460;28;20238;-56
2023/08/11 11:19:05;;;;;;;0.00;0.00;;;;;;;35.85;34.95;99539.91;5072696;28;20202;-56
2023/08/11 11:21:52;;;;;;;0.00;0.00;;;;;;;35.93;34.73;99536.75;5072854;28;20192;-56
2023/08/11 11:24:39;;;;;;;0.00;0.00;;;;;;;37.61;33.10;99535.81;5075890;28;20314;-56
2023/08/11 11:27:26;;;;;;;0.00;0.00;;;;;;;37.59;32.83;99521.44;5091873;28;20195;-56
2023/08/11 11:30:14;;;;;;;0.00;0.00;;;;;;;38.57;31.72;99529.97;5092644;28;20213;-56
2023/08/11 11:33:01;;;;;;;0.00;0.00;;;;;;;39.32;30.41;99526.78;5092671;28;20198;-56
2023/08/11 11:35:50;;;;;;;0.00;0.00;;;;;;;36.74;32.96;99528.66;5092377;28;20223;-57
2023/08/11 11:38:38;;;;;;;0.00;0.00;;;;;;;38.17;31.69;99510.44;5092712;28;20278;-56
2023/08/11 11:41:26;;;;;;;0.00;0.00;;;;;;;41.27;27.47;99504.31;5091597;28;20214;-56
2023/08/11 11:44:13;;;;;;;0.00;0.00;;;;;;;39.67;30.19;99495.44;5092519;28;20195;-57
2023/08/11 11:47:01;;;;;;;0.00;0.00;;;;;;;39.90;29.77;99500.34;5092551;28;20255;-57
2023/08/11 11:49:55;;;;;;;0.00;0.00;;;;;;;41.89;28.17;99496.25;5092315;28;20218;-57
2023/08/11 11:52:46;;;;;;;0.00;0.00;;;;;;;40.19;29.26;99489.44;5092529;28;20191;-56
2023/08/11 11:55:33;;;;;;;0.00;0.00;;;;;;;39.13;30.26;99502.41;5091414;28;20292;-56
2023/08/11 11:58:22;;;;;;;0.00;0.00;;;;;;;38.02;30.92;99497.34;5092802;28;20191;-56
2023/08/11 12:01:13;;;;;;;0.00;0.00;;;;;;;40.01;29.95;99490.06;5092484;28;20191;-56
2023/08/11 12:04:04;;;;;;;0.00;0.00;;;;;;;41.46;28.28;99488.59;5092384;28;20294;-57
2023/08/11 12:06:52;;;;;;;0.00;0.00;;;;;;;39.14;29.48;99489.38;5092533;28;20420;-56
2023/08/11 12:09:51;;;;;;;0.00;0.00;;;;;;;39.69;29.72;99487.66;5090139;28;20333;-56
2023/08/11 12:12:38;;;;;;;0.00;0.00;;;;;;;40.67;28.72;99488.94;5092615;28;20261;-57
2023/08/11 12:15:26;;;;;;;0.00;0.00;;;;;;;42.54;26.45;99477.03;5092446;28;20210;-57
2023/08/11 12:18:13;;;;;;;0.00;0.00;;;;;;;42.25;26.38;99477.97;5092419;28;20187;-57
2023/08/11 12:21:01;;;;;;;0.00;0.00;;;;;;;41.19;27.26;99480.75;5094308;28;20248;-57
2023/08/11 12:23:48;;;;;;;0.00;0.00;;;;;;;41.73;27.39;99473.31;5096201;28;20692;-56
2023/08/11 12:26:35;;;;;;;0.00;0.00;;;;;;;40.08;28.69;99478.69;5096446;28;20206;-56
2023/08/11 12:29:22;;;;;;;0.00;0.00;;;;;;;41.14;28.25;99475.25;5096222;28;20206;-57
2023/08/11 12:32:09;;;;;;;0.00;0.00;;;;;;;42.83;26.34;99471.28;5096058;28;20301;-56
2023/08/11 12:34:57;;;;;;;0.00;0.00;;;;;;;41.57;27.35;99474.56;5096041;28;20229;-57
2023/08/11 12:37:46;;;;;;;0.00;0.00;;;;;;;41.31;27.05;99468.44;5095646;28;20226;-57
2023/08/11 12:40:33;;;;;;;0.00;0.00;;;;;;;41.91;27.03;99474.50;5094531;28;20193;-57
2023/08/11 12:43:20;;;;;;;0.00;0.00;;;;;;;40.83;27.93;99469.09;5095941;28;20195;-56
2023/08/11 12:46:07;;;;;;;0.00;0.00;;;;;;;40.28;29.05;99465.53;5095817;28;20694;-56
2023/08/11 12:48:54;;;;;;;0.00;0.00;;;;;;;40.49;28.13;99474.59;5095699;28;20187;-56
2023/08/11 12:51:41;;;;;;;0.00;0.00;;;;;;;40.37;28.55;99462.16;5095778;28;20195;-56
2023/08/11 12:54:29;;;;;;;0.00;0.00;;;;;;;42.07;27.09;99469.53;5094421;28;20202;-56
2023/08/11 12:57:16;;;;;;;0.00;0.00;;;;;;;42.30;26.74;99474.28;5095830;28;20194;-56
2023/08/11 13:00:03;;;;;;;0.00;0.00;;;;;;;41.17;27.47;99469.09;5095596;28;20244;-56
2023/08/11 13:02:50;;;;;;;0.00;0.00;;;;;;;42.28;26.34;99468.19;5094183;28;20295;-56
2023/08/11 13:05:37;;;;;;;0.00;0.00;;;;;;;40.17;28.53;99469.47;5095544;28;20244;-56